Villemontel, Canada
Current Conditions -  °F | °C
As of 3:00 PM on Saturday 25 Oct 2014 (Local Time) from CYUY Reporting Station
Broken Clouds Broken Clouds  
Wind Chill: 54°   Ceiling: 2800
Heat Index: 54°   Visibility: 15mi
Dew Point: 45°   Wind: 17mph
Humidity: 72%   Direction: 280°W
Pressure: 29.34"   Gusts: 23mph
Location:  48.62°N, 78.37°W
Report Text: CYUY 251900Z 28015G20KT 15SM SCT010 BKN028 BKN045 12/07 A2934 RMK SC3SC3SC1 SLP941 DENSITY ALT 1500FT
Loading
Personal Weather Stations






























Interactive Weather Map
Tropical Storm Tracking
New forecast layout! Learn more

10-Day Weather Forecast

Advertisements
Track Severe Weather on mobile